Latest Weather Observations for Adelaide (West Terrace / ngayirdapira)

IDS60801

Issued at 10:01 pm CST Tuesday 23 July 2024 (issued every 10 minutes, with the page automatically refreshed every 10 minutes)

About weather observations | Map of weather stations | Latest weather observations for SA | Other Formats
Station Details ID: 023000 Name: ADELAIDE (WEST TERRACE / NGAYIRDAPIRA) Lat: -34.93 Lon: 138.58 Height: 29.32 m
Data from the previous 72 hours. | See also: Recent months at Adelaide (West Terrace / ngayirdapira)
Date/Time
CST
Temp
°C
App
Temp
°C
Dew
Point
°C
Rel
Hum
%
Delta-T
°C
Wind Press
QNH
hPa
Press
MSL
hPa
Rain since
9am
mm
Dir  Spd
km/h
Gust
km/h
Spd
kts
Gust
kts
23/10:00pm 15.1 10.0 3.3 45 5.3 N 19 30 10 16 1017.2 1017.2 0.0
23/09:30pm 15.2 10.2 3.4 45 5.4 NNE 19 37 10 20 1017.4 1017.4 0.0
23/09:00pm 15.4 10.8 3.5 45 5.4 NNE 17 30 9 16 1017.6 1017.6 0.0
23/08:30pm 15.5 10.9 3.6 45 5.4 NNE 17 28 9 15 1017.7 1017.7 0.0
23/08:00pm 15.4 11.1 3.2 44 5.5 NNE 15 24 8 13 1018.0 1018.0 0.0
23/07:30pm 15.6 11.3 3.1 43 5.7 NNE 15 22 8 12 1017.9 1017.9 0.0
23/07:00pm 15.4 11.1 3.2 44 5.5 NNE 15 24 8 13 1018.1 1018.1 0.0
23/06:30pm 15.4 11.5 3.5 45 5.4 NNE 13 26 7 14 1018.3 1018.3 0.0
23/06:00pm 15.7 11.8 3.5 44 5.6 NNE 13 20 7 11 1018.3 1018.3 0.0
23/05:30pm 16.4 12.6 3.8 43 5.8 N 13 24 7 13 1018.4 1018.4 0.0
23/05:00pm 16.9 13.2 4.6 44 5.8 N 13 20 7 11 1018.4 1018.4 0.0
23/04:30pm 17.5 13.0 4.1 41 6.3 N 17 28 9 15 1018.5 1018.5 0.0
23/04:00pm 18.2 13.7 4.0 39 6.7 NNW 17 32 9 17 1018.4 1018.4 0.0
23/03:30pm 18.6 13.5 4.0 38 6.9 N 20 35 11 19 1018.6 1018.6 0.0
23/03:00pm 18.6 13.6 4.4 39 6.8 N 20 37 11 20 1018.7 1018.7 0.0
23/02:30pm 18.6 13.7 4.0 38 6.9 N 19 35 10 19 1019.1 1019.1 0.0
23/02:00pm 18.8 14.2 5.6 42 6.5 NNW 19 35 10 19 1019.2 1019.2 0.0
23/01:30pm 18.0 12.8 5.6 44 6.0 N 22 35 12 19 1019.9 1019.9 0.0
23/01:00pm 17.9 13.4 6.1 46 5.8 NNW 19 37 10 20 1020.7 1020.7 0.0
23/12:30pm 17.4 12.9 6.0 47 5.6 N 19 30 10 16 1021.3 1021.3 0.0
23/12:00pm 16.7 12.5 5.6 48 5.3 NNW 17 26 9 14 1021.9 1021.9 0.0
23/11:30am 16.2 11.9 5.2 48 5.2 N 17 33 9 18 1022.5 1022.5 0.0
23/11:00am 15.2 11.1 4.3 48 5.1 N 15 28 8 15 1022.8 1022.8 0.0
23/10:30am 15.0 10.9 4.1 48 5.0 N 15 28 8 15 1023.0 1023.0 0.0
23/10:00am 13.8 9.6 3.6 50 4.6 N 15 28 8 15 1023.3 1023.3 0.0
23/09:30am 13.2 8.4 2.7 49 4.6 NNE 17 26 9 14 1023.3 1023.3 0.0
23/09:00am 12.1 7.2 2.0 50 4.3 NNE 17 30 9 16 1023.2 1023.2 0.0
23/08:30am 11.6 7.0 1.8 51 4.2 NNE 15 24 8 13 1023.0 1023.0 0.0
23/08:00am 11.2 7.0 1.7 52 4.0 NNE 13 20 7 11 1022.8 1022.8 0.0
23/07:30am 10.8 6.6 1.6 53 3.9 NE 13 19 7 10 1022.6 1022.6 0.0
23/07:00am 10.4 6.2 1.8 55 3.6 NE 13 19 7 10 1022.4 1022.4 0.0
23/06:30am 10.7 6.1 1.8 54 3.7 NE 15 26 8 14 1022.3 1022.3 0.0
23/06:00am 10.4 6.3 2.0 56 3.5 NE 13 19 7 10 1022.1 1022.1 0.0
23/05:30am 10.3 6.1 1.9 56 3.5 NE 13 19 7 10 1021.8 1021.8 0.0
23/05:00am 10.0 6.2 1.9 57 3.4 NE 11 17 6 9 1021.7 1021.7 0.0
23/04:30am 10.0 5.9 2.4 59 3.2 NE 13 19 7 10 1021.5 1021.5 0.0
23/04:00am 10.1 6.4 2.2 58 3.3 NE 11 15 6 8 1021.6 1021.6 0.0
23/03:30am 10.2 6.5 2.3 58 3.3 NNE 11 15 6 8 1021.7 1021.7 0.0
23/03:00am 10.2 6.9 2.6 59 3.2 NE 9 15 5 8 1021.9 1021.9 0.0
23/02:30am 10.1 6.5 2.7 60 3.2 NE 11 15 6 8 1022.2 1022.2 0.0
23/02:00am 10.3 7.1 2.9 60 3.2 NNE 9 13 5 7 1022.4 1022.4 0.0
23/01:30am 10.7 7.1 3.0 59 3.3 NNE 11 17 6 9 1022.6 1022.6 0.0
23/01:00am 11.0 7.5 3.3 59 3.4 NNE 11 17 6 9 1022.7 1022.7 0.0
23/12:30am 11.0 7.9 3.8 61 3.2 NNE 9 15 5 8 1022.9 1022.9 0.0
23/12:00am 11.2 8.2 4.2 62 3.1 NNE 9 15 5 8 1022.9 1022.9 0.0
 
Date/Time
CST
Temp
°C
App
Temp
°C
Dew
Point
°C
Rel
Hum
%
Delta-T
°C
Wind Press
QNH
hPa
Press
MSL
hPa
Rain since
9am
mm
Dir  Spd
km/h
Gust
km/h
Spd
kts
Gust
kts
22/11:30pm 11.4 8.1 4.6 63 3.1 NNE 11 17 6 9 1023.1 1023.1 0.0
22/11:00pm 11.8 8.6 5.2 64 3.0 NNE 11 19 6 10 1023.3 1023.3 0.0
22/10:30pm 11.6 8.6 5.9 68 2.6 NE 11 17 6 9 1023.5 1023.5 0.0
22/10:00pm 12.1 9.5 5.9 66 2.9 NNE 9 15 5 8 1023.5 1023.5 0.0
22/09:30pm 12.3 9.8 6.6 68 2.7 NNE 9 13 5 7 1023.6 1023.6 0.0
22/09:00pm 12.5 10.0 6.5 67 2.8 NE 9 13 5 7 1023.6 1023.6 0.0
22/08:30pm 12.5 10.1 7.2 70 2.6 NE 9 13 5 7 1023.5 1023.5 0.0
22/08:00pm 12.9 11.0 7.6 70 2.6 NNE 7 11 4 6 1023.5 1023.5 0.0
22/07:30pm 13.1 11.2 7.5 69 2.7 NNE 7 11 4 6 1023.5 1023.5 0.0
22/07:00pm 13.3 11.3 7.3 67 2.9 N 7 11 4 6 1023.4 1023.4 0.0
22/06:30pm 13.9 12.1 7.2 64 3.3 N 6 9 3 5 1023.3 1023.3 0.0
22/06:00pm 15.0 12.6 7.1 59 3.9 NNW 9 15 5 8 1023.1 1023.1 0.0
22/05:30pm 15.5 12.8 7.3 58 4.0 NW 11 19 6 10 1023.0 1023.0 0.0
22/05:00pm 16.2 13.1 7.4 56 4.4 NW 13 22 7 12 1022.9 1022.9 0.0
22/04:30pm 16.4 13.5 8.1 58 4.2 NNW 13 19 7 10 1022.9 1022.9 0.0
22/04:00pm 16.5 13.2 8.0 57 4.3 NW 15 26 8 14 1023.0 1023.0 0.0
22/03:30pm 17.1 14.0 8.8 58 4.3 NNW 15 22 8 12 1022.8 1022.8 0.0
22/03:00pm 17.1 13.2 9.5 61 4.0 NW 20 32 11 17 1022.9 1022.9 0.0
22/02:30pm 16.9 13.3 9.8 63 3.7 NW 19 28 10 15 1023.0 1023.0 0.0
22/02:00pm 16.8 13.7 10.4 66 3.4 NW 17 28 9 15 1023.1 1023.1 0.0
22/01:30pm 16.2 12.5 10.3 68 3.1 NNW 20 30 11 16 1023.3 1023.3 0.0
22/01:00pm 15.4 11.7 10.0 70 2.8 NW 20 28 11 15 1023.7 1023.7 0.0
22/12:30pm 14.8 11.3 8.7 67 3.1 NNW 17 28 9 15 1024.2 1024.2 0.0
22/12:00pm 14.3 10.5 8.9 70 2.7 NNW 19 26 10 14 1024.6 1024.6 0.0
22/11:30am 14.7 11.6 8.9 68 2.9 NNW 15 26 8 14 1025.0 1025.0 0.0
22/11:00am 13.8 11.0 8.6 71 2.6 N 13 20 7 11 1025.2 1025.2 0.0
22/10:30am 12.7 9.7 7.8 72 2.4 N 13 19 7 10 1025.2 1025.2 0.0
22/10:00am 12.1 9.4 7.4 73 2.3 NNE 11 19 6 10 1025.1 1025.1 0.0
22/09:30am 11.6 8.8 7.1 74 2.1 NE 11 15 6 8 1024.9 1024.9 0.0
22/09:00am 10.5 7.7 7.0 79 1.7 NE 11 19 6 10 1024.8 1024.8 0.2
22/08:30am 10.0 7.6 6.9 81 1.5 NNE 9 13 5 7 1024.5 1024.5 0.2
22/08:00am 10.0 7.6 6.9 81 1.5 NNE 9 15 5 8 1024.3 1024.3 0.2
22/07:30am 9.6 7.2 6.9 83 1.3 NNE 9 15 5 8 1024.0 1024.0 0.2
22/07:00am 9.7 6.9 6.8 82 1.4 NE 11 17 6 9 1023.7 1023.7 0.2
22/06:30am 9.6 6.8 6.9 83 1.3 NE 11 15 6 8 1023.5 1023.5 0.2
22/06:00am 10.0 7.6 7.1 82 1.4 NE 9 13 5 7 1023.3 1023.3 0.2
22/05:30am 10.1 7.4 7.3 83 1.3 NNE 11 15 6 8 1023.2 1023.2 0.2
22/05:00am 10.2 7.9 7.4 83 1.3 NNE 9 15 5 8 1022.8 1022.8 0.2
22/04:30am 11.0 8.5 8.1 82 1.4 NNE 11 15 6 8 1022.5 1022.5 0.2
22/04:00am 11.8 9.7 8.3 79 1.7 NNE 9 15 5 8 1022.4 1022.4 0.2
22/03:30am 12.4 10.3 8.3 76 2.0 NNW 9 20 5 11 1022.4 1022.4 0.2
22/03:00am 12.9 10.0 8.2 73 2.3 NW 13 20 7 11 1022.4 1022.4 0.2
22/02:30am 13.1 9.8 8.2 72 2.4 NW 15 24 8 13 1022.5 1022.5 0.2
22/02:00am 13.3 9.6 8.0 70 2.6 NW 17 22 9 12 1022.3 1022.3 0.2
22/01:30am 13.4 9.8 8.3 71 2.5 NW 17 26 9 14 1022.3 1022.3 0.2
22/01:00am 13.4 10.3 8.7 73 2.4 NW 15 26 8 14 1022.2 1022.2 0.2
22/12:30am 13.4 10.4 9.1 75 2.2 NW 15 20 8 11 1022.3 1022.3 0.2
22/12:00am 13.2 10.2 9.3 77 2.0 NW 15 20 8 11 1022.4 1022.4 0.2
 
Date/Time
CST
Temp
°C
App
Temp
°C
Dew
Point
°C
Rel
Hum
%
Delta-T
°C
Wind Press
QNH
hPa
Press
MSL
hPa
Rain since
9am
mm
Dir  Spd
km/h
Gust
km/h
Spd
kts
Gust
kts
21/11:30pm 13.1 10.5 9.5 79 1.8 NNW 13 20 7 11 1022.5 1022.5 0.2
21/11:00pm 13.3 10.7 9.5 78 1.9 NW 13 19 7 10 1022.5 1022.5 0.2
21/10:30pm 13.6 10.7 9.5 76 2.1 NNW 15 22 8 12 1022.3 1022.3 0.2
21/10:00pm 13.9 10.2 9.3 74 2.3 NNW 19 24 10 13 1022.3 1022.3 0.2
21/09:30pm 13.8 11.2 9.5 75 2.2 NW 13 24 7 13 1022.3 1022.3 0.2
21/09:00pm 13.7 11.2 9.7 77 2.0 NNW 13 20 7 11 1022.2 1022.2 0.2
21/08:30pm 12.7 11.6 10.8 88 1.0 N 7 13 4 7 1022.0 1022.0 0.2
21/08:00pm 12.8 11.4 11.0 89 0.9 N 9 13 5 7 1022.0 1022.0 0.2
21/07:30pm 12.9 11.6 11.3 90 0.8 NNE 9 17 5 9 1021.9 1021.9 0.2
21/07:00pm 12.8 11.9 11.4 91 0.7 NNE 7 11 4 6 1021.8 1021.8 0.2
21/06:30pm 12.9 12.2 11.5 91 0.7 NNW 6 9 3 5 1021.6 1021.6 0.2
21/06:00pm 13.0 11.0 11.4 90 0.8 NW 13 24 7 13 1021.5 1021.5 0.2
21/05:30pm 13.6 10.5 11.5 87 1.1 WNW 19 32 10 17 1021.5 1021.5 0.2
21/05:00pm 14.5 12.0 10.9 79 1.9 NW 15 24 8 13 1021.3 1021.3 0.0
21/04:30pm 14.7 11.9 11.3 80 1.8 NW 17 22 9 12 1021.1 1021.1 0.0
21/04:00pm 14.5 11.7 11.3 81 1.7 NW 17 26 9 14 1020.9 1020.9 0.0
21/03:30pm 14.4 12.1 11.6 83 1.5 NW 15 20 8 11 1020.9 1020.9 0.0
21/03:00pm 14.4 11.7 11.6 83 1.5 NW 17 24 9 13 1020.8 1020.8 0.0
21/02:30pm 14.9 12.6 11.7 81 1.7 WNW 15 26 8 14 1020.6 1020.6 0.0
21/02:00pm 15.4 12.2 11.8 79 1.9 NW 20 32 11 17 1020.6 1020.6 0.0
21/01:30pm 14.8 11.6 11.4 80 1.8 NW 19 30 10 16 1020.8 1020.8 0.0
21/01:00pm 14.2 10.8 11.2 82 1.6 NW 20 32 11 17 1021.1 1021.1 0.0
21/12:30pm 13.9 10.4 10.9 82 1.6 NW 20 30 11 16 1021.5 1021.5 0.0
21/12:00pm 13.9 9.7 11.1 83 1.5 NW 24 39 13 21 1021.8 1021.8 0.0
21/11:59am 13.8 9.6 11.0 83 1.5 NW 24 39 13 21 1021.8 1021.8 0.0
21/11:30am 13.0 9.6 10.7 86 1.2 NW 19 28 10 15 1022.0 1022.0 0.0
21/11:00am 13.0 9.7 10.9 87 1.1 NNW 19 33 10 18 1022.3 1022.3 0.0
21/10:30am 12.5 9.9 10.6 88 1.0 NNW 15 28 8 15 1022.4 1022.4 0.0
21/10:00am 11.8 9.5 10.5 92 0.7 NNW 13 20 7 11 1022.3 1022.3 0.0
21/09:30am 11.3 8.6 10.2 93 0.6 NNW 15 20 8 11 1022.1 1022.1 0.0
21/09:00am 11.3 9.4 10.4 94 0.5 N 11 20 6 11 1021.8 1021.8 1.6
21/08:30am 11.2 9.3 10.6 96 0.3 N 11 17 6 9 1021.6 1021.6 1.6
21/08:00am 10.7 8.7 10.1 96 0.3 N 11 17 6 9 1021.5 1021.5 1.6
21/07:30am 11.3 9.4 10.4 94 0.5 N 11 17 6 9 1021.4 1021.4 1.6
21/07:00am 11.1 9.2 10.5 96 0.3 N 11 15 6 8 1021.1 1021.1 1.6
21/06:30am 11.1 9.2 10.6 97 0.3 N 11 19 6 10 1020.8 1020.8 1.6
21/06:00am 11.3 9.9 10.8 97 0.3 N 9 13 5 7 1020.5 1020.5 1.6
21/05:30am 11.4 10.0 10.8 96 0.3 N 9 13 5 7 1020.4 1020.4 1.6
21/05:00am 11.7 9.9 10.8 94 0.5 NNW 11 19 6 10 1020.1 1020.1 1.6
21/04:30am 11.7 10.3 10.9 95 0.4 N 9 17 5 9 1020.1 1020.1 1.6
21/04:00am 11.8 11.0 11.2 96 0.3 N 6 11 3 6 1020.1 1020.1 1.6
21/03:30am 11.7 10.7 10.9 95 0.4 N 7 11 4 6 1020.2 1020.2 1.6
21/03:00am 11.4 10.5 10.8 96 0.3 N 6 9 3 5 1020.4 1020.4 1.6
21/02:30am 11.4 9.9 10.6 95 0.4 NNE 9 15 5 8 1020.6 1020.6 1.6
21/02:00am 11.2 9.7 10.4 95 0.4 NNE 9 13 5 7 1020.6 1020.6 1.6
21/01:30am 11.3 9.8 10.5 95 0.4 NNE 9 13 5 7 1020.7 1020.7 1.6
21/01:00am 10.9 9.6 10.1 95 0.4 NNE 7 11 4 6 1020.6 1020.6 1.6
21/12:38am 10.8 9.5 10.0 95 0.4 NNE 7 11 4 6 1020.8 1020.8 1.6
21/12:30am 10.9 9.6 10.1 95 0.4 NNE 7 11 4 6 1020.8 1020.8 1.6
21/12:00am 11.0 9.4 10.1 94 0.5 NNE 9 11 5 6 1020.9 1020.9 1.6
 
Date/Time
CST
Temp
°C
App
Temp
°C
Dew
Point
°C
Rel
Hum
%
Delta-T
°C
Wind Press
QNH
hPa
Press
MSL
hPa
Rain since
9am
mm
Dir  Spd
km/h
Gust
km/h
Spd
kts
Gust
kts
20/11:30pm 11.4 9.9 10.5 94 0.5 N 9 13 5 7 1020.8 1020.8 1.6
20/11:00pm 11.2 9.6 10.3 94 0.5 N 9 13 5 7 1020.9 1020.9 1.6
20/10:30pm 11.3 10.2 9.9 91 0.7 N 6 9 3 5 1020.8 1020.8 1.6

Other formats

Comma delimited format used in spreadsheet applications
http://www.bom.gov.au/fwo/IDS60801/IDS60801.94648.axf

JavaScript Object Notation format (JSON) in row-major order
http://www.bom.gov.au/fwo/IDS60801/IDS60801.94648.json

Data quality

Most of these data are generated automatically and are frequently updated. Quality checks on data are not normally performed. It is possible for incorrect values to appear. Refer to information at About Latest Weather Observations and please check the disclaimer before using these data.